createdAt,value
2018-09-17T00:01:52.217Z,60.81
2018-09-17T00:04:21.840Z,60.82
2018-09-17T00:06:50.547Z,61.02
2018-09-17T00:09:20.763Z,61.71
2018-09-17T00:11:50.087Z,61.70
2018-09-17T00:14:19.129Z,61.81
2018-09-17T00:16:47.807Z,62.39
2018-09-17T00:19:17.085Z,62.37
2018-09-17T00:21:46.421Z,61.99
2018-09-17T00:24:15.048Z,62.61
2018-09-17T00:26:43.771Z,62.65
2018-09-17T00:29:13.748Z,62.33
2018-09-17T00:31:42.446Z,62.28
2018-09-17T00:34:11.223Z,62.47
2018-09-17T00:36:40.897Z,62.34
2018-09-17T00:39:12.317Z,62.39
2018-09-17T00:41:40.947Z,62.42
2018-09-17T00:44:10.239Z,62.44
2018-09-17T00:46:38.947Z,63.02
2018-09-17T00:49:07.651Z,62.45
2018-09-17T00:51:36.630Z,62.41
2018-09-17T00:54:05.329Z,62.44
2018-09-17T00:56:34.133Z,62.76
2018-09-17T00:59:03.015Z,62.48
2018-09-17T01:01:31.819Z,63.42
2018-09-17T01:04:00.434Z,62.91
2018-09-17T01:06:29.195Z,63.27
2018-09-17T01:08:58.188Z,63.46
2018-09-17T01:11:26.916Z,63.72
2018-09-17T01:13:55.513Z,63.46
2018-09-17T01:16:24.127Z,63.10
2018-09-17T01:18:52.766Z,63.27
2018-09-17T01:21:21.340Z,63.14
2018-09-17T01:23:49.928Z,63.60
2018-09-17T01:26:18.656Z,63.27
2018-09-17T01:28:47.272Z,63.13
2018-09-17T01:31:15.913Z,63.42
2018-09-17T01:33:45.717Z,63.41
2018-09-17T01:36:14.414Z,63.12
2018-09-17T01:38:43.080Z,63.51
2018-09-17T01:41:11.720Z,62.94
2018-09-17T01:43:40.432Z,62.98
2018-09-17T01:46:09.093Z,63.36
2018-09-17T01:48:37.836Z,63.55
2018-09-17T01:51:06.719Z,62.95
2018-09-17T01:53:36.217Z,63.11
2018-09-17T01:56:04.867Z,63.02
2018-09-17T01:58:33.526Z,63.09
2018-09-17T02:01:02.831Z,63.06
2018-09-17T02:03:31.583Z,62.94
2018-09-17T02:06:00.732Z,63.10
2018-09-17T02:08:29.435Z,62.75
2018-09-17T02:10:58.154Z,62.99
2018-09-17T02:13:27.389Z,63.54
2018-09-17T02:15:56.219Z,63.28
2018-09-17T02:18:24.915Z,63.38
2018-09-17T02:20:54.126Z,63.39
2018-09-17T02:23:22.846Z,63.58
2018-09-17T02:25:51.617Z,63.28
2018-09-17T02:28:20.895Z,63.05
2018-09-17T02:30:49.989Z,63.18
2018-09-17T02:33:19.227Z,63.07
2018-09-17T02:35:47.865Z,63.29
2018-09-17T02:38:18.495Z,63.11
2018-09-17T02:40:47.407Z,63.67
2018-09-17T02:43:16.140Z,63.02
2018-09-17T02:45:45.555Z,63.17
2018-09-17T02:48:14.127Z,63.50
2018-09-17T02:50:44.045Z,63.40
2018-09-17T02:53:12.845Z,62.91
2018-09-17T02:55:41.637Z,62.94
2018-09-17T02:58:10.268Z,63.04
2018-09-17T03:00:39.448Z,63.36
2018-09-17T03:03:08.316Z,63.24
2018-09-17T03:05:38.019Z,62.42
2018-09-17T03:08:07.091Z,62.01
2018-09-17T03:10:35.697Z,62.30
2018-09-17T03:13:05.148Z,62.36
2018-09-17T03:15:47.855Z,62.34
2018-09-17T03:18:17.555Z,62.31
2018-09-17T03:20:47.329Z,62.08
2018-09-17T03:23:16.068Z,62.47
2018-09-17T03:25:45.323Z,62.37
2018-09-17T03:28:15.154Z,62.95
2018-09-17T03:30:43.823Z,62.41
2018-09-17T03:33:12.703Z,63.01
2018-09-17T03:35:41.398Z,62.83
2018-09-17T03:38:26.632Z,63.43
2018-09-17T03:40:55.763Z,63.37
2018-09-17T03:43:24.482Z,63.22
2018-09-17T03:45:53.144Z,63.49
2018-09-17T03:48:21.996Z,63.78
2018-09-17T03:50:50.788Z,63.46
2018-09-17T03:53:19.999Z,63.60
2018-09-17T03:55:48.935Z,63.82
2018-09-17T03:58:17.897Z,63.85
2018-09-17T04:00:46.904Z,64.07
2018-09-17T04:03:15.648Z,63.01
2018-09-17T04:05:44.628Z,63.41
2018-09-17T04:08:13.879Z,63.11
2018-09-17T04:10:42.661Z,63.03
2018-09-17T04:13:11.834Z,63.54
2018-09-17T04:15:40.728Z,63.42
2018-09-17T04:18:09.617Z,63.38
2018-09-17T04:20:39.458Z,63.56
2018-09-17T04:23:08.102Z,63.48
2018-09-17T04:25:37.055Z,63.16
2018-09-17T04:28:05.929Z,63.49
2018-09-17T04:30:35.684Z,63.71
2018-09-17T04:33:05.804Z,62.38
2018-09-17T04:35:35.053Z,61.92
2018-09-17T04:38:04.536Z,62.23
2018-09-17T04:40:33.293Z,62.36
2018-09-17T04:43:01.866Z,62.54
2018-09-17T04:45:30.936Z,63.17
2018-09-17T04:47:59.962Z,62.42
2018-09-17T04:50:29.101Z,62.35
2018-09-17T04:52:59.327Z,62.21
2018-09-17T04:55:29.987Z,62.39
2018-09-17T04:57:59.544Z,62.87
2018-09-17T05:00:28.302Z,63.31
2018-09-17T05:02:57.338Z,62.88
2018-09-17T05:05:26.829Z,62.71
2018-09-17T05:07:56.306Z,62.80
2018-09-17T05:10:25.278Z,62.74
2018-09-17T05:12:54.733Z,62.64
2018-09-17T05:15:23.724Z,62.56
2018-09-17T05:17:53.119Z,62.79
2018-09-17T05:20:21.954Z,63.20
2018-09-17T05:22:50.797Z,62.50
2018-09-17T05:25:21.362Z,62.49
2018-09-17T05:27:50.424Z,62.39
2018-09-17T05:30:20.056Z,63.26
2018-09-17T05:32:49.055Z,62.89
2018-09-17T05:35:17.900Z,62.96
2018-09-17T05:37:46.758Z,62.84
2018-09-17T05:40:15.868Z,62.74
2018-09-17T05:42:44.467Z,62.68
2018-09-17T05:45:13.840Z,62.52
2018-09-17T05:47:42.798Z,62.25
2018-09-17T05:50:11.595Z,63.00
2018-09-17T05:52:40.346Z,62.44
2018-09-17T05:55:09.010Z,62.84
2018-09-17T05:57:37.900Z,63.06
2018-09-17T06:00:07.613Z,63.35
2018-09-17T06:02:36.966Z,62.98
2018-09-17T06:05:05.696Z,62.69
2018-09-17T06:07:34.322Z,62.43
2018-09-17T06:10:03.194Z,63.20
2018-09-17T06:12:31.830Z,62.39
2018-09-17T06:15:00.577Z,62.82
2018-09-17T06:17:29.413Z,63.26
2018-09-17T06:19:58.184Z,63.20
2018-09-17T06:22:27.738Z,62.81
2018-09-17T06:24:56.390Z,62.11
2018-09-17T06:27:25.112Z,62.03
2018-09-17T06:29:53.743Z,61.55
2018-09-17T06:32:22.377Z,62.89
2018-09-17T06:34:51.754Z,61.98
2018-09-17T06:37:23.238Z,62.01
2018-09-17T06:39:51.905Z,61.85
2018-09-17T06:42:21.259Z,61.89
2018-09-17T06:44:50.193Z,61.95
2018-09-17T06:47:19.480Z,62.43
2018-09-17T06:49:48.342Z,62.29
2018-09-17T06:52:17.658Z,62.19
2018-09-17T06:54:46.441Z,61.39
2018-09-17T06:57:15.231Z,61.17
2018-09-17T06:59:44.669Z,61.42
2018-09-17T07:02:13.370Z,60.95
2018-09-17T07:04:42.225Z,61.07
2018-09-17T07:07:11.502Z,62.08
2018-09-17T07:09:40.828Z,61.34
2018-09-17T07:12:09.585Z,61.11
2018-09-17T07:14:38.702Z,61.58
2018-09-17T07:17:09.691Z,62.23
2018-09-17T07:19:38.423Z,61.93
2018-09-17T07:22:07.401Z,61.26
2018-09-17T07:24:36.000Z,61.17
2018-09-17T07:27:04.750Z,60.55
2018-09-17T07:29:34.495Z,60.70
2018-09-17T07:32:04.330Z,61.42
2018-09-17T07:34:33.106Z,60.66
2018-09-17T07:37:02.859Z,60.83
2018-09-17T07:39:31.556Z,60.43
2018-09-17T07:42:03.166Z,60.45
2018-09-17T07:44:31.983Z,60.32
2018-09-17T07:47:01.773Z,60.37
2018-09-17T07:49:31.420Z,61.37
2018-09-17T07:52:00.927Z,60.38
2018-09-17T07:54:29.497Z,60.83
2018-09-17T07:56:58.690Z,60.38
2018-09-17T07:59:27.379Z,60.08
2018-09-17T08:01:56.548Z,59.91
2018-09-17T08:04:26.159Z,59.11
2018-09-17T08:06:54.811Z,59.02
2018-09-17T08:09:24.321Z,58.59
2018-09-17T08:11:53.116Z,58.44
2018-09-17T08:14:22.206Z,58.24
2018-09-17T08:16:51.970Z,58.23
2018-09-17T08:19:21.043Z,57.86
2018-09-17T08:21:50.153Z,57.89
2018-09-17T08:24:19.543Z,57.44
2018-09-17T08:26:49.098Z,57.33
2018-09-17T08:29:17.739Z,57.37
2018-09-17T08:31:48.658Z,57.81
2018-09-17T08:34:17.756Z,56.20
2018-09-17T08:36:46.378Z,56.30
2018-09-17T08:39:15.886Z,56.33
2018-09-17T08:41:44.861Z,56.37
2018-09-17T08:44:13.636Z,55.67
2018-09-17T08:46:42.253Z,55.37
2018-09-17T08:49:15.202Z,55.03
2018-09-17T08:51:44.368Z,55.30
2018-09-17T08:54:13.097Z,55.54
2018-09-17T08:56:49.918Z,54.48
2018-09-17T08:59:24.101Z,54.89
2018-09-17T09:01:58.108Z,54.46
2018-09-17T09:04:27.372Z,53.77
2018-09-17T09:07:00.231Z,54.15
2018-09-17T09:09:28.937Z,54.64
2018-09-17T09:12:04.512Z,54.07
2018-09-17T09:14:38.486Z,53.39
2018-09-17T09:17:08.569Z,54.08
2018-09-17T09:19:37.757Z,52.31
2018-09-17T09:22:06.699Z,53.01
2018-09-17T09:24:35.873Z,53.11
2018-09-17T09:27:05.628Z,52.80
2018-09-17T09:29:34.315Z,52.36
2018-09-17T09:32:03.303Z,51.22
2018-09-17T09:34:31.978Z,51.29
2018-09-17T09:37:00.639Z,51.42
2018-09-17T09:39:29.923Z,51.39
2018-09-17T09:41:59.260Z,50.68
2018-09-17T09:44:28.789Z,49.56
2018-09-17T09:46:57.506Z,50.16
2018-09-17T09:49:26.363Z,51.33
2018-09-17T09:51:54.999Z,50.37
2018-09-17T09:54:23.821Z,50.06
2018-09-17T09:56:52.603Z,49.75
2018-09-17T09:59:22.103Z,49.59
2018-09-17T10:01:56.969Z,49.23
2018-09-17T10:04:25.659Z,49.74
2018-09-17T10:06:54.652Z,48.29
2018-09-17T10:09:28.658Z,48.23
2018-09-17T10:12:02.695Z,47.03
2018-09-17T10:16:46.553Z,47.13
2018-09-17T10:19:20.698Z,45.96
2018-09-17T10:21:49.972Z,45.93
2018-09-17T10:24:19.279Z,46.16
2018-09-17T10:26:49.056Z,45.78
2018-09-17T10:29:18.014Z,45.42
2018-09-17T10:31:46.767Z,45.24
2018-09-17T10:34:15.570Z,45.01
2018-09-17T10:36:45.456Z,45.26
2018-09-17T10:39:14.844Z,45.30
2018-09-17T10:41:43.738Z,46.13
2018-09-17T10:49:09.435Z,44.58
2018-09-17T10:51:39.964Z,44.97
2018-09-17T10:54:08.798Z,45.49
2018-09-17T10:56:37.544Z,44.97
2018-09-17T10:59:08.295Z,44.48
2018-09-17T11:01:38.473Z,44.56
2018-09-17T11:04:08.525Z,44.24
2018-09-17T11:06:38.585Z,42.74
2018-09-17T11:09:10.372Z,43.30
2018-09-17T11:11:39.257Z,43.28
2018-09-17T11:14:09.232Z,43.30
2018-09-17T11:16:38.194Z,42.54
2018-09-17T11:19:07.011Z,41.09
2018-09-17T11:21:35.688Z,41.41
2018-09-17T11:24:04.409Z,41.38
2018-09-17T11:26:33.884Z,41.11
2018-09-17T11:29:02.851Z,40.96
2018-09-17T11:31:32.565Z,40.59
2018-09-17T11:34:01.857Z,40.06
2018-09-17T11:36:31.507Z,40.63
2018-09-17T11:39:00.235Z,39.94
2018-09-17T11:41:28.968Z,39.93
2018-09-17T11:43:57.706Z,39.84
2018-09-17T11:46:26.297Z,41.61
2018-09-17T11:48:54.817Z,40.53
2018-09-17T11:51:23.443Z,42.62
2018-09-17T11:53:52.213Z,39.05
2018-09-17T11:56:21.264Z,39.26
2018-09-17T11:58:50.052Z,39.11
2018-09-17T12:01:25.873Z,40.00
2018-09-17T12:03:59.911Z,40.30
2018-09-17T12:06:34.150Z,39.36
2018-09-17T12:09:03.264Z,39.62
2018-09-17T12:11:31.977Z,39.49
2018-09-17T12:14:00.973Z,39.91
2018-09-17T12:16:29.769Z,38.45
2018-09-17T12:18:58.359Z,38.14
2018-09-17T12:21:27.424Z,38.43
2018-09-17T12:23:55.979Z,36.81
2018-09-17T12:26:24.657Z,37.85
2018-09-17T12:28:53.261Z,37.16
2018-09-17T12:31:22.421Z,35.88
2018-09-17T12:33:51.382Z,36.26
2018-09-17T12:36:19.900Z,36.66
2018-09-17T12:38:48.694Z,36.20
2018-09-17T12:41:18.177Z,36.07
2018-09-17T12:43:47.425Z,36.23
2018-09-17T12:46:16.244Z,36.17
2018-09-17T12:48:44.808Z,35.62
2018-09-17T12:51:14.481Z,34.69
2018-09-17T12:53:43.990Z,34.67
2018-09-17T12:56:13.908Z,34.57
2018-09-17T12:58:43.488Z,34.57
2018-09-17T13:01:12.502Z,34.29
2018-09-17T13:03:41.219Z,35.15
2018-09-17T13:06:10.897Z,34.34
2018-09-17T13:08:39.628Z,34.30
2018-09-17T13:11:08.428Z,33.32
2018-09-17T13:13:39.804Z,33.96
2018-09-17T13:16:09.407Z,33.06
2018-09-17T13:18:39.246Z,33.31
2018-09-17T13:21:07.902Z,32.07
2018-09-17T13:23:36.915Z,32.50
2018-09-17T13:26:06.622Z,31.59
2018-09-17T13:28:35.227Z,31.59
2018-09-17T13:31:05.369Z,32.56
2018-09-17T13:33:33.943Z,32.23
2018-09-17T13:36:02.910Z,32.86
2018-09-17T13:38:31.526Z,31.93
2018-09-17T13:41:00.439Z,32.56
2018-09-17T13:43:30.189Z,32.32
2018-09-17T13:45:59.208Z,31.83
2018-09-17T13:48:27.848Z,31.26
2018-09-17T13:50:58.344Z,32.07
2018-09-17T13:53:27.065Z,31.64
2018-09-17T13:55:56.431Z,31.34
2018-09-17T13:58:25.159Z,31.72
2018-09-17T14:00:54.128Z,31.17
2018-09-17T14:03:22.895Z,31.66
2018-09-17T14:05:53.832Z,31.58
2018-09-17T14:08:22.504Z,31.08
2018-09-17T14:10:51.859Z,32.00
2018-09-17T14:13:20.861Z,31.00
2018-09-17T14:15:54.769Z,31.74
2018-09-17T14:18:24.136Z,31.51
2018-09-17T14:20:53.946Z,31.59
2018-09-17T14:23:22.568Z,31.42
2018-09-17T14:25:52.160Z,30.53
2018-09-17T14:28:21.034Z,32.06
2018-09-17T14:30:52.721Z,31.62
2018-09-17T14:33:26.551Z,32.37
2018-09-17T14:35:55.681Z,32.27
2018-09-17T14:38:24.760Z,31.81
2018-09-17T14:40:53.925Z,32.58
2018-09-17T14:43:23.304Z,31.88
2018-09-17T14:45:52.227Z,32.62
2018-09-17T14:48:20.911Z,32.13
2018-09-17T14:50:49.582Z,31.75
2018-09-17T14:53:19.109Z,32.01
2018-09-17T14:55:47.771Z,31.53
2018-09-17T14:58:16.354Z,31.26
2018-09-17T15:00:45.134Z,32.17
2018-09-17T15:03:14.281Z,31.65
2018-09-17T15:05:43.904Z,32.06
2018-09-17T15:08:15.481Z,31.83
2018-09-17T15:10:44.091Z,31.97
2018-09-17T15:13:13.452Z,32.68
2018-09-17T15:15:46.082Z,30.89
2018-09-17T15:18:18.645Z,31.27
2018-09-17T15:20:47.388Z,31.28
2018-09-17T15:23:16.896Z,30.62
2018-09-17T15:25:45.815Z,30.91
2018-09-17T15:28:15.299Z,33.38
2018-09-17T15:30:44.104Z,31.07
2018-09-17T15:33:13.389Z,31.25
2018-09-17T15:35:43.071Z,31.50
2018-09-17T15:38:13.833Z,32.25
2018-09-17T15:40:49.175Z,32.37
2018-09-17T15:43:21.812Z,33.08
2018-09-17T15:45:52.637Z,33.06
2018-09-17T15:48:22.117Z,32.89
2018-09-17T15:50:51.569Z,33.70
2018-09-17T15:53:20.230Z,34.74
2018-09-17T15:55:50.343Z,34.85
2018-09-17T15:58:20.878Z,34.67
2018-09-17T16:00:51.663Z,34.98
2018-09-17T16:03:27.304Z,35.48
2018-09-17T16:05:56.055Z,35.13
2018-09-17T16:08:26.091Z,36.46
2018-09-17T16:10:54.636Z,36.47
2018-09-17T16:13:23.312Z,37.73
2018-09-17T16:15:52.130Z,37.59
2018-09-17T16:18:21.060Z,37.10
2018-09-17T16:20:51.978Z,38.45
2018-09-17T16:23:20.720Z,38.72
2018-09-17T16:25:50.139Z,38.83
2018-09-17T16:28:18.827Z,39.37
2018-09-17T16:30:48.308Z,39.82
2018-09-17T16:33:19.499Z,39.75
2018-09-17T16:35:49.267Z,40.07
2018-09-17T16:38:17.828Z,40.45
2018-09-17T16:40:47.523Z,40.77
2018-09-17T16:43:16.255Z,41.11
2018-09-17T16:45:44.924Z,41.27
2018-09-17T16:48:14.018Z,41.53
2018-09-17T16:50:42.918Z,42.17
2018-09-17T16:53:12.143Z,42.92
2018-09-17T16:55:41.527Z,42.82
2018-09-17T16:58:10.316Z,42.98
2018-09-17T17:00:39.753Z,44.28
2018-09-17T17:03:09.026Z,44.68
2018-09-17T17:05:37.834Z,45.06
2018-09-17T17:08:07.159Z,44.91
2018-09-17T17:10:35.897Z,44.63
2018-09-17T17:13:05.404Z,45.99
2018-09-17T17:15:34.084Z,45.58
2018-09-17T17:18:03.546Z,45.71
2018-09-17T17:20:33.123Z,46.22
2018-09-17T17:23:02.804Z,46.09
2018-09-17T17:25:31.656Z,46.79
2018-09-17T17:28:00.251Z,46.49
2018-09-17T17:30:29.281Z,47.26
2018-09-17T17:32:58.090Z,47.46
2018-09-17T17:35:26.914Z,48.26
2018-09-17T17:37:55.769Z,47.76
2018-09-17T17:40:25.389Z,47.99
2018-09-17T17:42:54.540Z,49.53
2018-09-17T17:45:23.391Z,48.87
2018-09-17T17:47:52.229Z,48.94
2018-09-17T17:50:21.044Z,49.46
2018-09-17T17:52:50.437Z,49.90
2018-09-17T17:55:19.229Z,50.57
2018-09-17T17:57:48.369Z,49.83
2018-09-17T18:00:20.021Z,51.41
2018-09-17T18:02:48.917Z,51.34
2018-09-17T18:05:17.700Z,50.42
2018-09-17T18:07:47.912Z,51.51
2018-09-17T18:10:16.599Z,50.47
2018-09-17T18:12:45.695Z,50.54
2018-09-17T18:15:15.041Z,51.48
2018-09-17T18:17:44.841Z,51.78
2018-09-17T18:20:13.530Z,51.40
2018-09-17T18:22:42.297Z,51.93
2018-09-17T18:25:12.696Z,51.80
2018-09-17T18:27:42.974Z,51.94
2018-09-17T18:30:12.398Z,51.79
2018-09-17T18:32:41.598Z,51.94
2018-09-17T18:35:10.367Z,52.72
2018-09-17T18:37:39.673Z,52.79
2018-09-17T18:40:08.942Z,52.99
2018-09-17T18:42:39.265Z,52.72
2018-09-17T18:45:08.967Z,53.03
2018-09-17T18:47:41.623Z,53.75
2018-09-17T18:50:10.928Z,53.83
2018-09-17T18:52:39.694Z,54.12
2018-09-17T18:55:09.679Z,54.64
2018-09-17T18:57:38.376Z,54.06
2018-09-17T19:00:10.327Z,54.71
2018-09-17T19:02:39.282Z,54.13
2018-09-17T19:05:11.840Z,54.05
2018-09-17T19:07:40.601Z,54.20
2018-09-17T19:10:10.140Z,54.34
2018-09-17T19:12:39.374Z,54.23
2018-09-17T19:15:14.896Z,53.96
2018-09-17T19:17:44.632Z,55.09
2018-09-17T19:20:13.898Z,55.42
2018-09-17T19:22:48.555Z,55.07
2018-09-17T19:25:17.455Z,54.88
2018-09-17T19:27:52.395Z,54.47
2018-09-17T19:30:22.257Z,54.85
2018-09-17T19:32:52.196Z,54.93
2018-09-17T19:35:21.072Z,55.66
2018-09-17T19:37:56.158Z,55.53
2018-09-17T19:40:24.958Z,55.22
2018-09-17T19:42:53.858Z,55.46
2018-09-17T19:45:28.207Z,55.35
2018-09-17T19:47:57.670Z,55.03
2018-09-17T19:50:31.556Z,55.20
2018-09-17T19:53:02.121Z,55.12
2018-09-17T19:55:33.047Z,55.66
2018-09-17T19:58:08.879Z,56.04
2018-09-17T20:00:38.265Z,55.58
2018-09-17T20:03:07.034Z,56.09
2018-09-17T20:05:40.934Z,57.06
2018-09-17T20:08:09.661Z,57.52
2018-09-17T20:10:38.649Z,58.40
2018-09-17T20:13:07.700Z,58.35
2018-09-17T20:15:36.644Z,59.08
2018-09-17T20:18:05.286Z,60.50
2018-09-17T20:20:34.484Z,60.60
2018-09-17T20:23:04.437Z,60.56
2018-09-17T20:25:34.161Z,60.75
2018-09-17T20:28:03.098Z,61.05
2018-09-17T20:30:32.159Z,61.46
2018-09-17T20:33:01.903Z,61.61
2018-09-17T20:35:30.620Z,61.48
2018-09-17T20:37:59.647Z,61.26
2018-09-17T20:40:29.105Z,61.21
2018-09-17T20:42:57.966Z,60.97
2018-09-17T20:45:26.783Z,61.40
2018-09-17T20:47:56.136Z,60.91
2018-09-17T20:50:25.311Z,61.47
2018-09-17T20:52:54.365Z,61.67
2018-09-17T20:55:23.331Z,61.55
2018-09-17T20:57:52.529Z,61.84
2018-09-17T21:00:21.649Z,61.39
2018-09-17T21:02:52.645Z,62.07
2018-09-17T21:05:21.798Z,61.49
2018-09-17T21:07:51.320Z,61.80
2018-09-17T21:10:20.794Z,61.90
2018-09-17T21:12:50.368Z,61.42
2018-09-17T21:15:19.046Z,61.22
2018-09-17T21:17:48.273Z,61.47
2018-09-17T21:20:19.388Z,61.86
2018-09-17T21:22:49.224Z,61.50
2018-09-17T21:25:18.763Z,62.36
2018-09-17T21:27:48.309Z,61.48
2018-09-17T21:30:18.064Z,61.41
2018-09-17T21:32:46.729Z,62.25
2018-09-17T21:35:15.380Z,60.88
2018-09-17T21:37:44.143Z,61.70
2018-09-17T21:40:12.936Z,61.03
2018-09-17T21:42:41.703Z,61.61
2018-09-17T21:45:10.820Z,61.27
2018-09-17T21:47:39.947Z,60.62
2018-09-17T21:50:08.616Z,61.40
2018-09-17T21:52:37.437Z,60.67
2018-09-17T21:55:06.400Z,61.52
2018-09-17T21:57:35.133Z,60.97
2018-09-17T22:00:03.965Z,60.68
2018-09-17T22:02:32.847Z,60.48
2018-09-17T22:05:01.700Z,59.95
2018-09-17T22:07:30.449Z,60.00
2018-09-17T22:09:59.275Z,60.38
2018-09-17T22:12:28.415Z,59.27
2018-09-17T22:14:57.264Z,60.21
2018-09-17T22:17:25.883Z,59.67
2018-09-17T22:19:55.553Z,59.39
2018-09-17T22:22:24.883Z,59.10
2018-09-17T22:24:53.573Z,58.86
2018-09-17T22:27:22.253Z,59.07
2018-09-17T22:29:50.953Z,59.35
2018-09-17T22:32:20.634Z,59.71
2018-09-17T22:34:49.273Z,59.69
2018-09-17T22:37:17.964Z,59.39
2018-09-17T22:39:46.708Z,59.95
2018-09-17T22:42:15.661Z,59.59
2018-09-17T22:44:45.056Z,60.35
2018-09-17T22:47:14.555Z,59.65
2018-09-17T22:49:43.349Z,59.85
2018-09-17T22:52:12.686Z,59.85
2018-09-17T22:54:41.462Z,59.73
2018-09-17T22:57:10.266Z,60.05
2018-09-17T22:59:38.939Z,60.07
2018-09-17T23:02:08.056Z,60.13
2018-09-17T23:04:37.051Z,60.04
2018-09-17T23:07:06.606Z,60.46
2018-09-17T23:09:35.385Z,60.32
2018-09-17T23:12:04.363Z,59.88
2018-09-17T23:14:32.986Z,59.92
2018-09-17T23:17:02.781Z,60.60
2018-09-17T23:19:31.385Z,60.28
2018-09-17T23:22:00.171Z,59.60
2018-09-17T23:24:28.902Z,60.47
2018-09-17T23:26:57.574Z,59.73
2018-09-17T23:29:26.419Z,60.16
2018-09-17T23:31:55.135Z,60.22
2018-09-17T23:34:24.348Z,60.32
2018-09-17T23:36:54.046Z,60.01
2018-09-17T23:39:22.587Z,60.52
2018-09-17T23:41:51.157Z,60.25
2018-09-17T23:44:19.760Z,60.57
2018-09-17T23:46:48.480Z,60.72
2018-09-17T23:49:17.160Z,60.12
2018-09-17T23:51:45.973Z,60.42
2018-09-17T23:54:14.694Z,60.98
2018-09-17T23:56:43.394Z,60.44
2018-09-17T23:59:12.062Z,60.69
